Time,TemperatureF,DewpointF,PressureIn,WindDirection,WindDirectionDegrees,WindSpeedMPH,WindSpeedGustMPH,Humidity,HourlyPrecipIn,Conditions,Clouds,dailyrainin,SoftwareType,DateUTC
2013-05-29 00:00:00,58.0,56.9,30.18,SE,146,6.0,9.0,96,0.00,,,0.00,Wunderground v.1.15,2013-05-29 04:00:00,
2013-05-29 00:05:00,58.1,57.0,30.17,SSE,163,7.0,9.0,96,0.00,,,0.00,Wunderground v.1.15,2013-05-29 04:05:00,
2013-05-29 08:10:00,57.1,56.5,30.11,SSW,198,2.0,4.0,98,0.00,,,0.13,Wunderground v.1.15,2013-05-29 12:10:00,
2013-05-29 08:15:00,57.0,56.4,30.11,SSW,204,2.0,4.0,98,0.00,,,0.13,Wunderground v.1.15,2013-05-29 12:15:00,
2013-05-29 08:20:00,57.0,56.4,30.10,South,172,3.0,3.0,98,0.00,,,0.13,Wunderground v.1.15,2013-05-29 12:20:00,
2013-05-29 08:25:00,57.1,56.5,30.10,South,187,3.0,3.0,98,0.00,,,0.13,Wunderground v.1.15,2013-05-29 12:25:00,
2013-05-29 08:35:00,57.2,56.6,30.11,SSE,158,2.0,3.0,98,0.00,,,0.13,Wunderground v.1.15,2013-05-29 12:35:00,
2013-05-29 08:40:00,57.2,56.6,30.11,South,188,2.0,3.0,98,0.00,,,0.13,Wunderground v.1.15,2013-05-29 12:40:00,
2013-05-29 08:45:00,57.3,56.7,30.11,SW,225,2.0,3.0,98,0.00,,,0.13,Wunderground v.1.15,2013-05-29 12:45:00,
2013-05-29 08:50:00,57.5,56.9,30.10,SSE,159,1.0,3.0,98,0.00,,,0.13,Wunderground v.1.15,2013-05-29 12:50:00,
2013-05-29 08:55:00,57.5,56.9,30.11,South,187,2.0,3.0,98,0.00,,,0.13,Wunderground v.1.15,2013-05-29 12:55:00,
2013-05-29 09:00:00,57.7,57.1,30.10,SSE,164,2.0,2.0,98,0.00,,,0.13,Wunderground v.1.15,2013-05-29 13:00:00,
2013-05-29 09:05:00,57.7,57.1,30.10,SSW,196,1.0,2.0,98,0.00,,,0.13,Wunderground v.1.15,2013-05-29 13:05:00,
2013-05-29 09:10:00,57.9,57.3,30.10,South,184,2.0,2.0,98,0.00,,,0.13,Wunderground v.1.15,2013-05-29 13:10:00,
2013-05-29 09:15:00,58.1,57.5,30.10,SSE,160,2.0,3.0,98,0.00,,,0.13,Wunderground v.1.15,2013-05-29 13:15:00,
2013-05-29 09:20:00,58.1,57.5,30.10,SSW,205,3.0,3.0,98,0.00,,,0.13,Wunderground v.1.15,2013-05-29 13:20:00,
2013-05-29 09:25:00,58.2,57.6,30.10,SSW,210,2.0,3.0,98,0.00,,,0.13,Wunderground v.1.15,2013-05-29 13:25:00,
2013-05-29 09:30:00,58.0,57.2,30.10,SW,226,2.0,2.0,97,0.00,,,0.13,Wunderground v.1.15,2013-05-29 13:30:00,
2013-05-29 09:41:00,57.8,57.0,30.10,SSE,148,3.0,3.0,97,0.00,,,0.13,Wunderground v.1.15,2013-05-29 13:41:00,
2013-05-29 09:50:00,57.8,57.2,30.10,SW,225,2.0,2.0,98,0.00,,,0.13,Wunderground v.1.15,2013-05-29 13:50:00,
2013-05-29 09:55:00,57.9,57.3,30.11,SSE,148,1.0,2.0,98,0.00,,,0.13,Wunderground v.1.15,2013-05-29 13:55:00,
2013-05-29 10:00:00,57.9,57.3,30.10,SE,141,1.0,1.0,98,0.00,,,0.13,Wunderground v.1.15,2013-05-29 14:00:00,
2013-05-29 10:05:00,58.0,57.4,30.11,SSE,150,1.0,1.0,98,0.00,,,0.13,Wunderground v.1.15,2013-05-29 14:05:00,
2013-05-29 10:10:00,58.3,57.7,30.10,SE,144,0.0,0.0,98,0.00,,,0.13,Wunderground v.1.15,2013-05-29 14:10:00,
2013-05-29 10:15:00,58.2,57.4,30.11,SSE,158,0.0,1.0,97,0.00,,,0.13,Wunderground v.1.15,2013-05-29 14:15:00,
2013-05-29 10:25:00,58.3,57.5,30.10,SSE,167,2.0,3.0,97,0.00,,,0.13,Wunderground v.1.15,2013-05-29 14:25:00,
2013-05-29 10:30:00,58.6,57.8,30.11,SSE,158,2.0,2.0,97,0.00,,,0.13,Wunderground v.1.15,2013-05-29 14:30:00,
2013-05-29 10:35:00,59.0,58.2,30.11,SSW,210,2.0,3.0,97,0.00,,,0.13,Wunderground v.1.15,2013-05-29 14:35:00,
2013-05-29 10:40:00,59.3,58.4,30.10,SE,142,1.0,1.0,97,0.00,,,0.13,Wunderground v.1.15,2013-05-29 14:40:00,
2013-05-29 10:45:00,59.3,58.2,30.10,SE,134,1.0,3.0,96,0.00,,,0.13,Wunderground v.1.15,2013-05-29 14:45:00,
2013-05-29 10:50:00,59.2,58.1,30.11,SSE,147,2.0,2.0,96,0.00,,,0.13,Wunderground v.1.15,2013-05-29 14:50:00,
2013-05-29 10:55:00,59.0,57.9,30.10,SSE,150,3.0,3.0,96,0.00,,,0.13,Wunderground v.1.15,2013-05-29 14:55:00,
2013-05-29 11:00:00,58.9,57.8,30.10,SE,136,3.0,3.0,96,0.00,,,0.13,Wunderground v.1.15,2013-05-29 15:00:00,
2013-05-29 11:05:00,59.1,58.0,30.10,SE,146,2.0,3.0,96,0.00,,,0.13,Wunderground v.1.15,2013-05-29 15:05:00,
2013-05-29 11:15:00,59.5,58.1,30.10,South,183,2.0,3.0,95,0.00,,,0.13,Wunderground v.1.15,2013-05-29 15:15:00,
2013-05-29 11:20:00,59.7,58.6,30.10,SE,141,2.0,3.0,96,0.00,,,0.13,Wunderground v.1.15,2013-05-29 15:20:00,
2013-05-29 11:25:00,59.6,58.2,30.10,SE,146,3.0,4.0,95,0.00,,,0.13,Wunderground v.1.15,2013-05-29 15:25:00,
2013-05-29 11:30:00,59.7,58.3,30.10,SE,142,3.0,3.0,95,0.00,,,0.13,Wunderground v.1.15,2013-05-29 15:30:00,
2013-05-29 11:35:00,59.7,58.3,30.09,SE,138,3.0,3.0,95,0.00,,,0.13,Wunderground v.1.15,2013-05-29 15:35:00,
2013-05-29 11:40:00,60.2,59.1,30.09,ESE,120,3.0,4.0,96,0.00,,,0.13,Wunderground v.1.15,2013-05-29 15:40:00,
2013-05-29 11:45:00,60.9,59.5,30.09,SE,141,3.0,4.0,95,0.00,,,0.13,Wunderground v.1.15,2013-05-29 15:45:00,
2013-05-29 11:50:00,61.0,59.3,30.09,SE,144,3.0,4.0,94,0.00,,,0.13,Wunderground v.1.15,2013-05-29 15:50:00,
2013-05-29 11:55:00,60.9,58.9,30.09,SSE,151,4.0,5.0,93,0.00,,,0.13,Wunderground v.1.15,2013-05-29 15:55:00,
2013-05-29 12:01:00,60.6,58.9,30.09,SE,137,4.0,4.0,94,0.00,,,0.13,Wunderground v.1.15,2013-05-29 16:01:00,
2013-05-29 12:06:00,60.6,58.9,30.10,SSE,150,4.0,4.0,94,0.00,,,0.13,Wunderground v.1.15,2013-05-29 16:06:00,
2013-05-29 12:16:00,60.4,58.7,30.10,SE,131,4.0,5.0,94,0.00,,,0.13,Wunderground v.1.15,2013-05-29 16:16:00,
2013-05-29 12:21:00,60.3,58.6,30.09,SSE,148,4.0,4.0,94,0.00,,,0.13,Wunderground v.1.15,2013-05-29 16:21:00,
2013-05-29 12:31:00,61.3,59.6,30.10,SE,135,4.0,5.0,94,0.00,,,0.13,Wunderground v.1.15,2013-05-29 16:31:00,
2013-05-29 12:40:00,61.2,59.2,30.09,SSE,148,5.0,5.0,93,0.00,,,0.13,Wunderground v.1.15,2013-05-29 16:40:00,
2013-05-29 12:45:00,61.0,59.3,30.09,SSE,168,6.0,6.0,94,0.00,,,0.13,Wunderground v.1.15,2013-05-29 16:45:00,
2013-05-29 12:50:00,61.1,59.4,30.09,SSE,158,5.0,5.0,94,0.00,,,0.13,Wunderground v.1.15,2013-05-29 16:50:00,
2013-05-29 12:55:00,61.4,59.4,30.08,SSW,201,4.0,5.0,93,0.00,,,0.13,Wunderground v.1.15,2013-05-29 16:55:00,
2013-05-29 13:00:00,61.6,59.9,30.09,SW,217,4.0,4.0,94,0.00,,,0.13,Wunderground v.1.15,2013-05-29 17:00:00,
2013-05-29 13:05:00,62.0,59.6,30.08,South,184,5.0,7.0,92,0.00,,,0.13,Wunderground v.1.15,2013-05-29 17:05:00,
2013-05-29 13:15:00,62.0,60.0,30.08,South,176,6.0,6.0,93,0.00,,,0.13,Wunderground v.1.15,2013-05-29 17:15:00,
2013-05-29 13:20:00,62.1,60.1,30.08,SE,130,6.0,6.0,93,0.00,,,0.13,Wunderground v.1.15,2013-05-29 17:20:00,
2013-05-29 13:25:00,62.5,60.1,30.07,SSW,200,5.0,6.0,92,0.00,,,0.13,Wunderground v.1.15,2013-05-29 17:25:00,
2013-05-29 13:35:00,63.2,60.8,30.07,SW,219,5.0,8.0,92,0.00,,,0.13,Wunderground v.1.15,2013-05-29 17:35:00,
2013-05-29 13:40:00,64.0,61.3,30.07,SSE,162,4.0,4.0,91,0.00,,,0.13,Wunderground v.1.15,2013-05-29 17:40:00,
2013-05-29 13:45:00,64.4,61.4,30.07,South,179,4.0,5.0,90,0.00,,,0.13,Wunderground v.1.15,2013-05-29 17:45:00,
2013-05-29 13:50:00,64.4,61.1,30.07,SSE,150,5.0,9.0,89,0.00,,,0.13,Wunderground v.1.15,2013-05-29 17:50:00,
2013-05-29 13:55:00,64.0,61.0,30.07,South,179,6.0,9.0,90,0.00,,,0.13,Wunderground v.1.15,2013-05-29 17:55:00,
2013-05-29 14:00:00,64.4,61.4,30.07,SSW,200,5.0,5.0,90,0.00,,,0.13,Wunderground v.1.15,2013-05-29 18:00:00,
2013-05-29 14:05:00,64.3,61.3,30.07,SE,134,4.0,5.0,90,0.00,,,0.13,Wunderground v.1.15,2013-05-29 18:05:00,
2013-05-29 14:10:00,65.0,61.7,30.07,SSW,194,4.0,4.0,89,0.00,,,0.13,Wunderground v.1.15,2013-05-29 18:10:00,
2013-05-29 14:15:00,65.4,62.1,30.08,SSW,211,3.0,5.0,89,0.00,,,0.13,Wunderground v.1.15,2013-05-29 18:15:00,
2013-05-29 14:20:00,65.2,61.9,30.07,SW,219,4.0,5.0,89,0.00,,,0.13,Wunderground v.1.15,2013-05-29 18:20:00,
2013-05-29 14:25:00,65.6,62.3,30.07,SE,133,4.0,5.0,89,0.00,,,0.13,Wunderground v.1.15,2013-05-29 18:25:00,
2013-05-29 14:30:00,65.6,61.9,30.07,SSW,207,4.0,4.0,88,0.00,,,0.13,Wunderground v.1.15,2013-05-29 18:30:00,
2013-05-29 14:36:00,66.1,62.4,30.07,South,188,4.0,4.0,88,0.00,,,0.13,Wunderground v.1.15,2013-05-29 18:36:00,
2013-05-29 14:41:00,66.6,63.3,30.07,SSE,160,3.0,4.0,89,0.00,,,0.13,Wunderground v.1.15,2013-05-29 18:41:00,
2013-05-29 14:51:00,66.4,62.4,30.07,SSW,198,3.0,3.0,87,0.00,,,0.13,Wunderground v.1.15,2013-05-29 18:51:00,
2013-05-29 14:56:00,66.6,62.9,30.07,WSW,246,3.0,3.0,88,0.00,,,0.13,Wunderground v.1.15,2013-05-29 18:56:00,
2013-05-29 15:05:00,66.9,63.6,30.07,WSW,239,3.0,5.0,89,0.00,,,0.13,Wunderground v.1.15,2013-05-29 19:05:00,
2013-05-29 15:10:00,67.5,64.1,30.07,South,172,2.0,2.0,89,0.00,,,0.13,Wunderground v.1.15,2013-05-29 19:10:00,
2013-05-29 15:15:00,67.9,64.2,30.07,SSW,200,2.0,3.0,88,0.00,,,0.13,Wunderground v.1.15,2013-05-29 19:15:00,
2013-05-29 15:20:00,68.6,64.6,30.06,SSW,212,3.0,3.0,87,0.00,,,0.13,Wunderground v.1.15,2013-05-29 19:20:00,
2013-05-29 15:25:00,69.0,64.6,30.06,SSW,212,3.0,4.0,86,0.00,,,0.13,Wunderground v.1.15,2013-05-29 19:25:00,
2013-05-29 15:30:00,68.7,64.7,30.06,SSE,162,4.0,4.0,87,0.00,,,0.13,Wunderground v.1.15,2013-05-29 19:30:00,
2013-05-29 15:35:00,69.4,65.7,30.06,SSE,167,4.0,5.0,88,0.00,,,0.13,Wunderground v.1.15,2013-05-29 19:35:00,
2013-05-29 15:45:00,69.2,64.8,30.05,South,188,3.0,4.0,86,0.00,,,0.13,Wunderground v.1.15,2013-05-29 19:45:00,
2013-05-29 15:50:00,69.1,64.4,30.05,SW,219,3.0,5.0,85,0.00,,,0.13,Wunderground v.1.15,2013-05-29 19:50:00,
2013-05-29 15:55:00,69.1,64.7,30.05,WSW,238,4.0,5.0,86,0.00,,,0.13,Wunderground v.1.15,2013-05-29 19:55:00,
2013-05-29 16:00:00,69.0,64.6,30.05,SSE,167,3.0,3.0,86,0.00,,,0.13,Wunderground v.1.15,2013-05-29 20:00:00,
2013-05-29 16:05:00,69.2,64.8,30.05,SSE,168,3.0,4.0,86,0.00,,,0.13,Wunderground v.1.15,2013-05-29 20:05:00,
2013-05-29 16:10:00,69.4,65.0,30.05,SSW,211,3.0,4.0,86,0.00,,,0.13,Wunderground v.1.15,2013-05-29 20:10:00,
2013-05-29 16:15:00,69.4,64.4,30.05,South,184,4.0,4.0,84,0.00,,,0.13,Wunderground v.1.15,2013-05-29 20:15:00,
2013-05-29 16:20:00,69.8,65.1,30.05,SSW,210,3.0,3.0,85,0.00,,,0.13,Wunderground v.1.15,2013-05-29 20:20:00,
2013-05-29 16:26:00,69.5,64.8,30.05,SW,232,3.0,3.0,85,0.00,,,0.13,Wunderground v.1.15,2013-05-29 20:26:00,
2013-05-29 16:31:00,69.2,64.2,30.05,WSW,253,2.0,2.0,84,0.00,,,0.13,Wunderground v.1.15,2013-05-29 20:31:00,
2013-05-29 16:36:00,69.2,64.5,30.05,SSW,200,1.0,2.0,85,0.00,,,0.13,Wunderground v.1.15,2013-05-29 20:36:00,
2013-05-29 16:45:00,70.0,65.3,30.05,SW,233,1.0,4.0,85,0.00,,,0.13,Wunderground v.1.15,2013-05-29 20:45:00,
2013-05-29 16:51:00,69.5,64.8,30.04,SW,222,2.0,2.0,85,0.00,,,0.13,Wunderground v.1.15,2013-05-29 20:51:00,
2013-05-29 17:00:00,70.0,65.3,30.05,SSE,153,1.0,2.0,85,0.00,,,0.13,Wunderground v.1.15,2013-05-29 21:00:00,
2013-05-29 17:05:00,69.6,64.9,30.04,SSW,211,3.0,3.0,85,0.00,,,0.13,Wunderground v.1.15,2013-05-29 21:05:00,
2013-05-29 17:10:00,69.2,64.8,30.04,South,191,5.0,5.0,86,0.00,,,0.13,Wunderground v.1.15,2013-05-29 21:10:00,
2013-05-29 17:20:00,68.6,64.6,30.04,SSW,208,4.0,5.0,87,0.00,,,0.13,Wunderground v.1.15,2013-05-29 21:20:00,
2013-05-29 17:30:00,68.3,64.3,30.03,SW,218,4.0,4.0,87,0.00,,,0.13,Wunderground v.1.15,2013-05-29 21:30:00,
2013-05-29 17:35:00,68.3,63.9,30.03,South,181,4.0,4.0,86,0.00,,,0.13,Wunderground v.1.15,2013-05-29 21:35:00,
2013-05-29 17:40:00,67.7,63.4,30.03,South,177,3.0,4.0,86,0.00,,,0.13,Wunderground v.1.15,2013-05-29 21:40:00,
2013-05-29 17:45:00,67.2,63.5,30.03,South,173,3.0,4.0,88,0.00,,,0.13,Wunderground v.1.15,2013-05-29 21:45:00,
2013-05-29 17:50:00,67.3,63.9,30.03,ESE,122,3.0,3.0,89,0.00,,,0.13,Wunderground v.1.15,2013-05-29 21:50:00,
2013-05-29 18:00:00,67.6,63.9,30.03,South,178,3.0,4.0,88,0.00,,,0.13,Wunderground v.1.15,2013-05-29 22:00:00,
2013-05-29 18:05:00,68.0,64.3,30.03,SW,228,3.0,5.0,88,0.00,,,0.13,Wunderground v.1.15,2013-05-29 22:05:00,
2013-05-29 18:10:00,67.8,64.1,30.04,SW,219,4.0,5.0,88,0.00,,,0.13,Wunderground v.1.15,2013-05-29 22:10:00,
2013-05-29 18:20:00,68.4,64.7,30.05,South,184,3.0,5.0,88,0.00,,,0.13,Wunderground v.1.15,2013-05-29 22:20:00,
2013-05-29 18:25:00,68.2,64.8,30.04,WSW,243,3.0,5.0,89,0.00,,,0.13,Wunderground v.1.15,2013-05-29 22:25:00,
2013-05-29 18:30:00,68.3,64.9,30.04,WNW,291,2.0,2.0,89,0.00,,,0.13,Wunderground v.1.15,2013-05-29 22:30:00,
2013-05-29 18:35:00,68.4,65.0,30.04,South,191,2.0,2.0,89,0.00,,,0.13,Wunderground v.1.15,2013-05-29 22:35:00,
2013-05-29 18:40:00,68.3,64.6,30.03,South,186,2.0,2.0,88,0.00,,,0.13,Wunderground v.1.15,2013-05-29 22:40:00,
2013-05-29 18:50:00,68.1,64.7,30.03,West,260,2.0,2.0,89,0.00,,,0.13,Wunderground v.1.15,2013-05-29 22:50:00,
2013-05-29 18:55:00,68.4,65.0,30.03,SSE,163,1.0,2.0,89,0.00,,,0.13,Wunderground v.1.15,2013-05-29 22:55:00,
2013-05-29 19:00:00,68.5,64.8,30.03,SSE,150,0.0,0.0,88,0.00,,,0.13,Wunderground v.1.15,2013-05-29 23:00:00,
2013-05-29 19:05:00,67.1,63.1,30.03,SSE,162,1.0,3.0,87,0.00,,,0.13,Wunderground v.1.15,2013-05-29 23:05:00,
2013-05-29 19:10:00,66.0,62.7,30.03,South,181,3.0,3.0,89,0.00,,,0.13,Wunderground v.1.15,2013-05-29 23:10:00,
2013-05-29 19:15:00,65.4,62.4,30.03,SSE,158,3.0,3.0,90,0.00,,,0.13,Wunderground v.1.15,2013-05-29 23:15:00,
2013-05-29 19:20:00,64.8,62.1,30.03,SSE,164,3.0,3.0,91,0.00,,,0.13,Wunderground v.1.15,2013-05-29 23:20:00,
2013-05-29 19:26:00,64.6,62.2,30.03,SSE,159,2.0,3.0,92,0.00,,,0.13,Wunderground v.1.15,2013-05-29 23:26:00,
2013-05-29 19:31:00,64.5,62.1,30.03,South,181,1.0,3.0,92,0.00,,,0.13,Wunderground v.1.15,2013-05-29 23:31:00,
2013-05-29 19:40:00,63.7,61.3,30.02,SSE,158,1.0,1.0,92,0.00,,,0.13,Wunderground v.1.15,2013-05-29 23:40:00,
2013-05-29 19:45:00,63.2,60.8,30.03,SE,133,0.0,1.0,92,0.00,,,0.13,Wunderground v.1.15,2013-05-29 23:45:00,
2013-05-29 19:50:00,62.9,60.5,30.03,SE,133,0.0,0.0,92,0.00,,,0.13,Wunderground v.1.15,2013-05-29 23:50:00,
2013-05-29 19:55:00,62.8,60.4,30.02,SE,142,0.0,0.0,92,0.00,,,0.13,Wunderground v.1.15,2013-05-29 23:55:00,
2013-05-29 20:00:00,62.2,59.8,30.02,SSE,151,0.0,0.0,92,0.00,,,0.13,Wunderground v.1.15,2013-05-30 00:00:00,
2013-05-29 20:05:00,61.8,59.8,30.02,SE,133,0.0,0.0,93,0.00,,,0.13,Wunderground v.1.15,2013-05-30 00:05:00,
2013-05-29 20:10:00,61.6,59.6,30.03,SE,132,0.0,0.0,93,0.00,,,0.13,Wunderground v.1.15,2013-05-30 00:10:00,
2013-05-29 20:15:00,61.5,59.8,30.03,SE,136,0.0,0.0,94,0.00,,,0.13,Wunderground v.1.15,2013-05-30 00:15:00,
2013-05-29 20:20:00,61.4,59.7,30.03,SE,134,0.0,0.0,94,0.00,,,0.13,Wunderground v.1.15,2013-05-30 00:20:00,
2013-05-29 20:25:00,60.9,58.9,30.03,SSE,150,0.0,0.0,93,0.00,,,0.13,Wunderground v.1.15,2013-05-30 00:25:00,
2013-05-29 20:30:00,60.5,58.8,30.04,SE,132,0.0,0.0,94,0.00,,,0.13,Wunderground v.1.15,2013-05-30 00:30:00,
2013-05-29 20:35:00,60.3,58.6,30.03,SE,145,0.0,0.0,94,0.00,,,0.13,Wunderground v.1.15,2013-05-30 00:35:00,
2013-05-29 20:40:00,60.1,58.4,30.04,SE,145,0.0,0.0,94,0.00,,,0.13,Wunderground v.1.15,2013-05-30 00:40:00,
2013-05-29 20:45:00,60.0,58.3,30.04,SE,145,0.0,0.0,94,0.00,,,0.13,Wunderground v.1.15,2013-05-30 00:45:00,
2013-05-29 20:50:00,59.9,58.2,30.03,SE,145,0.0,0.0,94,0.00,,,0.13,Wunderground v.1.15,2013-05-30 00:50:00,
2013-05-29 20:55:00,59.8,58.4,30.03,SE,146,0.0,0.0,95,0.00,,,0.13,Wunderground v.1.15,2013-05-30 00:55:00,
2013-05-29 21:00:00,59.5,57.8,30.03,SE,135,0.0,0.0,94,0.00,,,0.13,Wunderground v.1.15,2013-05-30 01:00:00,
2013-05-29 21:05:00,59.3,57.9,30.03,SSW,200,0.0,0.0,95,0.00,,,0.13,Wunderground v.1.15,2013-05-30 01:05:00,
2013-05-29 21:15:00,59.3,58.2,30.04,WNW,302,0.0,0.0,96,0.00,,,0.13,Wunderground v.1.15,2013-05-30 01:15:00,
2013-05-29 21:20:00,59.5,58.4,30.04,WSW,238,0.0,0.0,96,0.00,,,0.13,Wunderground v.1.15,2013-05-30 01:20:00,
2013-05-29 21:25:00,59.6,58.5,30.03,WSW,238,0.0,0.0,96,0.00,,,0.13,Wunderground v.1.15,2013-05-30 01:25:00,
2013-05-29 21:30:00,59.5,58.4,30.03,SSW,195,0.0,0.0,96,0.00,,,0.13,Wunderground v.1.15,2013-05-30 01:30:00,
2013-05-29 21:35:00,59.6,58.5,30.04,West,276,0.0,0.0,96,0.00,,,0.13,Wunderground v.1.15,2013-05-30 01:35:00,
2013-05-29 21:40:00,59.7,58.6,30.05,NW,324,0.0,0.0,96,0.00,,,0.13,Wunderground v.1.15,2013-05-30 01:40:00,
2013-05-29 21:45:00,60.2,59.3,30.05,NW,326,0.0,0.0,97,0.00,,,0.13,Wunderground v.1.15,2013-05-30 01:45:00,
2013-05-29 21:50:00,60.5,59.6,30.05,NW,326,0.0,0.0,97,0.00,,,0.13,Wunderground v.1.15,2013-05-30 01:50:00,
2013-05-29 21:55:00,60.1,59.0,30.05,NW,326,0.0,0.0,96,0.00,,,0.13,Wunderground v.1.15,2013-05-30 01:55:00,
2013-05-29 22:00:00,60.1,59.0,30.05,NW,326,0.0,0.0,96,0.00,,,0.13,Wunderground v.1.15,2013-05-30 02:00:00,
2013-05-29 22:05:00,60.2,59.3,30.05,NW,326,0.0,0.0,97,0.00,,,0.13,Wunderground v.1.15,2013-05-30 02:05:00,
2013-05-29 22:10:00,60.4,59.5,30.05,SSW,213,0.0,0.0,97,0.00,,,0.13,Wunderground v.1.15,2013-05-30 02:10:00,
2013-05-29 22:15:00,60.5,59.6,30.05,SW,214,0.0,0.0,97,0.00,,,0.13,Wunderground v.1.15,2013-05-30 02:15:00,
2013-05-29 22:20:00,60.6,59.7,30.05,SW,214,0.0,0.0,97,0.00,,,0.13,Wunderground v.1.15,2013-05-30 02:20:00,
2013-05-29 22:25:00,60.7,59.8,30.05,SW,214,0.0,0.0,97,0.00,,,0.13,Wunderground v.1.15,2013-05-30 02:25:00,
2013-05-29 22:30:00,60.8,59.9,30.06,WNW,287,0.0,0.0,97,0.00,,,0.13,Wunderground v.1.15,2013-05-30 02:30:00,
2013-05-29 22:41:00,61.7,60.8,30.10,North,8,3.0,3.0,97,0.00,,,0.13,Wunderground v.1.15,2013-05-30 02:41:00,
2013-05-29 22:50:00,64.0,63.1,30.09,WNW,297,1.0,1.0,97,0.00,,,0.13,Wunderground v.1.15,2013-05-30 02:50:00,
2013-05-29 22:55:00,64.9,63.7,30.09,WSW,240,1.0,1.0,96,0.00,,,0.13,Wunderground v.1.15,2013-05-30 02:55:00,
2013-05-29 23:00:00,65.2,63.7,30.09,WNW,298,0.0,0.0,95,0.00,,,0.13,Wunderground v.1.15,2013-05-30 03:00:00,
2013-05-29 23:05:00,65.6,64.1,30.10,West,276,0.0,1.0,95,0.00,,,0.13,Wunderground v.1.15,2013-05-30 03:05:00,
2013-05-29 23:10:00,65.8,64.0,30.10,West,278,0.0,0.0,94,0.00,,,0.13,Wunderground v.1.15,2013-05-30 03:10:00,
2013-05-29 23:15:00,65.9,64.1,30.10,SSW,212,0.0,0.0,94,0.00,,,0.13,Wunderground v.1.15,2013-05-30 03:15:00,
2013-05-29 23:20:00,65.8,64.0,30.09,South,180,0.0,0.0,94,0.00,,,0.13,Wunderground v.1.15,2013-05-30 03:20:00,
2013-05-29 23:30:00,65.5,63.4,30.08,SE,143,0.0,0.0,93,0.00,,,0.13,Wunderground v.1.15,2013-05-30 03:30:00,
2013-05-29 23:35:00,65.3,63.2,30.08,East,99,0.0,0.0,93,0.00,,,0.13,Wunderground v.1.15,2013-05-30 03:35:00,
2013-05-29 23:40:00,65.4,63.6,30.08,SE,142,0.0,0.0,94,0.00,,,0.13,Wunderground v.1.15,2013-05-30 03:40:00,
2013-05-29 23:45:00,65.0,62.9,30.08,SSW,211,1.0,1.0,93,0.00,,,0.13,Wunderground v.1.15,2013-05-30 03:45:00,
2013-05-29 23:50:00,64.9,62.8,30.08,SSE,148,1.0,1.0,93,0.00,,,0.13,Wunderground v.1.15,2013-05-30 03:50:00,
2013-05-29 23:55:00,65.3,63.5,30.07,SE,129,1.0,1.0,94,0.00,,,0.13,Wunderground v.1.15,2013-05-30 03:55:00,